Time;durP1;ratioP1;P1;durP2;ratioP2;P2;SDS_P1;SDS_P2;PMS_P1;PMS_P2;Temp;Humidity;BMP_temperature;BMP_pressure;BME280_temperature;BME280_humidity;BME280_pressure;Samples;Min_cycle;Max_cycle;Signal;HPM_P1;HPM_P2
2021/04/11 00:02:17;;;;;;;10.18;8.60;;;;;;;11.68;71.55;99495.44;10364825;28;20046;-61
2021/04/11 00:07:18;;;;;;;12.23;10.43;;;;;;;11.69;71.71;99488.25;10366358;28;20041;-62
2021/04/11 00:12:19;;;;;;;11.20;10.05;;;;;;;11.67;71.63;99484.91;10379549;28;20081;-62
2021/04/11 00:17:20;;;;;;;11.27;10.02;;;;;;;11.64;71.82;99470.06;10371504;28;20089;-61
2021/04/11 00:22:21;;;;;;;9.63;8.73;;;;;;;11.60;71.94;99465.16;10382799;28;20137;-62
2021/04/11 00:27:22;;;;;;;11.25;9.73;;;;;;;11.52;72.09;99465.91;10380700;28;20044;-60
2021/04/11 00:32:23;;;;;;;10.65;9.73;;;;;;;11.44;72.40;99460.47;10389405;28;20160;-60
2021/04/11 00:37:24;;;;;;;10.65;9.18;;;;;;;11.37;72.72;99457.59;10378869;28;20062;-60
2021/04/11 00:42:40;;;;;;;11.40;10.20;;;;;;;11.27;72.89;99452.31;10386664;28;20089;-60
2021/04/11 00:47:41;;;;;;;10.57;9.57;;;;;;;11.26;73.06;99445.31;10377190;28;20100;-61
2021/04/11 00:52:44;;;;;;;12.00;10.93;;;;;;;11.20;73.08;99443.25;10368964;28;20041;-62
2021/04/11 00:57:47;;;;;;;13.75;12.15;;;;;;;11.17;73.33;99440.00;10386778;28;20111;-62
2021/04/11 01:02:47;;;;;;;12.55;11.45;;;;;;;11.10;73.48;99439.78;10357556;28;20049;-60
2021/04/11 01:07:50;;;;;;;13.07;11.85;;;;;;;11.19;73.22;99443.38;10349254;28;20119;-60
2021/04/11 01:12:53;;;;;;;12.60;11.38;;;;;;;11.16;73.10;99433.03;10349053;28;20128;-59
2021/04/11 01:17:55;;;;;;;11.52;10.50;;;;;;;11.14;73.59;99426.00;10344384;28;20049;-60
2021/04/11 01:23:02;;;;;;;11.85;10.60;;;;;;;11.10;73.68;99432.59;10335187;28;20057;-60
2021/04/11 01:28:14;;;;;;;12.05;10.88;;;;;;;11.06;74.06;99430.38;10352073;28;20091;-60
2021/04/11 01:33:18;;;;;;;12.38;11.18;;;;;;;11.03;74.32;99422.69;10346455;28;21454;-59
2021/04/11 01:38:21;;;;;;;12.20;11.10;;;;;;;11.01;74.66;99411.38;10326191;28;20453;-60
2021/04/11 01:43:23;;;;;;;12.70;11.40;;;;;;;10.97;74.95;99416.13;10328231;28;20041;-59
2021/04/11 01:48:24;;;;;;;12.70;11.40;;;;;;;10.93;74.99;99406.78;10343128;28;20065;-60
2021/04/11 01:53:25;;;;;;;13.43;12.00;;;;;;;10.85;75.46;99407.47;10349407;28;20081;-59
2021/04/11 01:58:27;;;;;;;13.43;12.02;;;;;;;10.83;74.98;99412.13;10347419;28;20054;-60
2021/04/11 02:03:29;;;;;;;13.95;12.52;;;;;;;10.81;75.29;99403.44;10371277;28;20041;-61
2021/04/11 02:08:31;;;;;;;12.77;11.68;;;;;;;10.86;75.22;99392.38;10369527;28;20050;-60
2021/04/11 02:13:36;;;;;;;13.68;12.43;;;;;;;10.85;75.32;99383.50;10379435;28;20041;-60
2021/04/11 02:18:38;;;;;;;13.00;11.85;;;;;;;10.85;74.99;99377.38;10371309;28;20038;-61
2021/04/11 02:23:39;;;;;;;12.50;11.30;;;;;;;10.81;75.31;99376.84;10373548;28;20096;-61
2021/04/11 02:28:40;;;;;;;12.13;10.93;;;;;;;10.87;74.78;99376.25;10382371;22;20626;-67
2021/04/11 02:33:48;;;;;;;11.88;10.85;;;;;;;10.87;74.79;99375.38;10344672;28;20057;-67
2021/04/11 02:38:52;;;;;;;12.80;11.70;;;;;;;10.88;75.18;99383.22;10335165;28;20049;-67
2021/04/11 02:43:55;;;;;;;12.02;10.85;;;;;;;10.85;74.94;99377.38;10336601;28;20100;-67
2021/04/11 02:48:56;;;;;;;11.57;10.45;;;;;;;10.82;75.16;99373.16;10322649;28;20050;-68
2021/04/11 02:54:00;;;;;;;12.68;11.45;;;;;;;10.74;75.20;99365.09;10341013;28;20077;-65
2021/04/11 02:59:02;;;;;;;14.07;12.73;;;;;;;10.82;74.95;99386.47;10342099;28;20089;-66
2021/04/11 03:04:05;;;;;;;13.13;11.93;;;;;;;10.85;74.96;99377.38;10337620;28;20519;-67
2021/04/11 03:09:11;;;;;;;12.25;11.05;;;;;;;10.85;74.63;99370.19;10338341;28;20078;-68
2021/04/11 03:14:16;;;;;;;13.02;11.18;;;;;;;10.82;74.78;99362.50;10343190;28;20761;-67
2021/04/11 03:19:22;;;;;;;12.00;10.90;;;;;;;10.76;74.65;99352.47;10338014;28;20058;-66
2021/04/11 03:24:23;;;;;;;11.75;10.43;;;;;;;10.77;74.80;99357.63;10337059;28;20082;-67
2021/04/11 03:29:35;;;;;;;11.98;10.73;;;;;;;10.81;74.82;99365.31;10322306;28;20054;-67
2021/04/11 03:34:39;;;;;;;11.88;10.77;;;;;;;10.81;74.31;99360.00;10337125;28;20120;-67
2021/04/11 03:39:41;;;;;;;12.18;11.05;;;;;;;10.95;73.90;99372.84;10363943;28;20608;-66
2021/04/11 03:44:42;;;;;;;15.38;11.07;;;;;;;10.88;74.40;99367.25;10347991;28;20046;-67
2021/04/11 03:49:52;;;;;;;12.82;11.38;;;;;;;10.89;74.40;99368.94;10351552;28;20050;-69
2021/04/11 03:54:55;;;;;;;11.80;10.70;;;;;;;10.75;74.18;99343.66;10346053;28;20057;-67
2021/04/11 04:00:03;;;;;;;12.10;10.23;;;;;;;10.70;74.58;99345.88;10335612;28;20152;-67
2021/04/11 04:05:07;;;;;;;12.10;10.90;;;;;;;10.78;74.48;99366.47;10333305;28;20041;-67
2021/04/11 04:10:09;;;;;;;13.17;11.97;;;;;;;10.82;74.94;99367.84;10353430;28;20062;-67
2021/04/11 04:15:23;;;;;;;13.02;11.75;;;;;;;10.76;74.70;99352.47;10328346;28;20053;-67
2021/04/11 04:20:24;;;;;;;11.67;10.57;;;;;;;10.90;74.78;99381.28;10346330;28;20054;-66
2021/04/11 04:25:44;;;;;;;12.57;11.30;;;;;;;10.94;74.30;99385.31;10333269;28;20143;-67
2021/04/11 04:30:57;;;;;;;11.52;10.10;;;;;;;10.93;73.76;99382.81;10333355;28;20486;-67
2021/04/11 04:36:32;;;;;;;11.95;10.88;;;;;;;10.98;73.86;99377.03;10344338;28;20100;-67
2021/04/11 04:41:36;;;;;;;;;;;;;;;11.00;73.13;99369.72;10304237;28;20069;-67
2021/04/11 04:46:53;;;;;;;11.23;10.13;;;;;;;10.93;73.03;99356.19;10340438;28;19929;-67
2021/04/11 04:51:59;;;;;;;11.60;9.57;;;;;;;11.09;72.03;99366.16;10337716;28;20078;-68
2021/04/11 04:57:07;;;;;;;8.85;8.05;;;;;;;11.16;70.32;99369.94;10326206;28;20151;-65
2021/04/11 05:02:13;;;;;;;10.07;6.38;;;;;;;11.14;68.47;99367.41;10349292;28;20065;-67
2021/04/11 05:07:18;;;;;;;6.60;5.22;;;;;;;11.22;67.59;99353.34;10349436;28;20056;-66
2021/04/11 05:12:22;;;;;;;;;;;;;;;11.37;66.91;99376.81;10349492;28;20058;-66
2021/04/11 05:17:29;;;;;;;6.00;4.95;;;;;;;11.34;67.33;99355.81;10339453;28;20029;-67
2021/04/11 05:22:41;;;;;;;5.70;4.50;;;;;;;11.35;67.90;99354.81;10335541;28;20447;-68
2021/04/11 05:27:47;;;;;;;4.82;4.35;;;;;;;11.41;68.37;99351.53;10342088;28;20069;-66
2021/04/11 05:32:49;;;;;;;5.40;4.85;;;;;;;11.39;68.99;99357.00;10345121;28;20053;-66
2021/04/11 05:38:08;;;;;;;5.43;4.00;;;;;;;11.57;68.50;99373.00;10342373;28;20119;-65
2021/04/11 05:43:16;;;;;;;4.97;3.70;;;;;;;11.65;68.31;99365.13;10340350;28;20509;-66
2021/04/11 05:48:30;;;;;;;3.92;3.42;;;;;;;11.72;68.30;99359.16;10337646;28;20073;-65
2021/04/11 05:53:36;;;;;;;4.70;3.33;;;;;;;11.78;68.15;99359.38;10338147;28;20095;-65
2021/04/11 05:58:44;;;;;;;3.10;2.80;;;;;;;11.96;67.91;99370.06;10331750;28;20074;-66
2021/04/11 06:03:51;;;;;;;4.82;3.55;;;;;;;12.01;67.32;99381.13;10347490;28;20461;-65
2021/04/11 06:09:11;;;;;;;5.60;3.90;;;;;;;12.06;67.38;99377.16;10340287;28;20046;-67
2021/04/11 06:14:20;;;;;;;3.67;3.38;;;;;;;12.13;67.12;99381.72;10347101;28;20042;-65
2021/04/11 06:19:22;;;;;;;5.95;3.10;;;;;;;11.99;66.86;99366.25;10320479;28;20078;-66
2021/04/11 06:24:38;;;;;;;3.10;2.70;;;;;;;12.22;66.76;99382.63;10346287;28;20653;-65
2021/04/11 06:29:53;;;;;;;3.72;2.85;;;;;;;12.29;66.78;99388.16;10345110;28;20041;-66
2021/04/11 06:35:02;;;;;;;4.70;3.67;;;;;;;12.23;67.21;99392.28;10327073;28;20050;-64
2021/04/11 06:40:15;;;;;;;5.20;2.83;;;;;;;12.21;66.92;99394.28;10352731;28;20096;-65
2021/04/11 06:45:28;;;;;;;3.65;3.00;;;;;;;12.25;67.08;99398.31;10342539;28;20119;-67
2021/04/11 06:50:32;;;;;;;5.63;2.70;;;;;;;12.20;67.40;99397.94;10338333;28;20095;-66
2021/04/11 06:55:44;;;;;;;3.43;2.70;;;;;;;12.09;67.32;99393.69;10334478;28;20172;-66
2021/04/11 07:01:19;;;;;;;6.03;2.78;;;;;;;12.06;67.52;99388.66;10334600;28;20143;-67
2021/04/11 07:06:41;;;;;;;4.78;2.78;;;;;;;12.34;66.28;99392.06;10335635;28;20132;-67
2021/04/11 07:12:01;;;;;;;3.55;2.95;;;;;;;12.56;65.53;99389.84;10320796;28;20101;-67
2021/04/11 07:17:26;;;;;;;3.47;2.60;;;;;;;12.76;64.11;99389.63;10339075;28;20045;-67
2021/04/11 07:22:46;;;;;;;3.15;2.58;;;;;;;12.94;63.39;99390.41;10348721;28;20147;-66
2021/04/11 07:28:02;;;;;;;4.68;2.88;;;;;;;13.14;63.07;99380.28;10354093;28;20057;-66
2021/04/11 07:33:23;;;;;;;3.97;2.90;;;;;;;13.43;61.78;99385.25;10354239;28;20048;-68
2021/04/11 07:38:34;;;;;;;5.63;2.60;;;;;;;13.68;60.31;99390.66;10331821;28;20104;-67
2021/04/11 07:44:19;;;;;;;4.38;2.97;;;;;;;13.96;59.98;99398.34;10343717;28;20423;-67
2021/04/11 07:49:58;;;;;;;4.95;2.90;;;;;;;13.86;59.30;99405.72;10339423;28;20117;-65
2021/04/11 07:55:33;;;;;;;4.72;2.60;;;;;;;14.17;57.86;99397.03;10343208;28;20120;-67
2021/04/11 08:00:56;;;;;;;5.45;2.83;;;;;;;14.33;57.06;99395.19;10345081;28;20062;-67
2021/04/11 08:06:19;;;;;;;3.72;3.00;;;;;;;14.75;55.92;99387.94;10342112;28;20050;-65
2021/04/11 08:11:39;;;;;;;3.53;2.58;;;;;;;15.03;55.76;99383.00;10328465;28;20648;-67
2021/04/11 08:16:52;;;;;;;3.13;2.42;;;;;;;15.08;54.49;99384.31;10345509;28;20112;-67
2021/04/11 08:22:21;;;;;;;2.78;2.00;;;;;;;15.27;55.07;99383.06;10348882;28;20053;-66
2021/04/11 08:27:46;;;;;;;4.25;2.78;;;;;;;15.39;52.79;99392.38;10353279;28;20069;-65
2021/04/11 08:32:59;;;;;;;3.28;2.65;;;;;;;15.40;53.01;99391.34;10337021;28;20599;-66
2021/04/11 08:38:45;;;;;;;3.00;2.15;;;;;;;15.47;53.50;99396.88;10350900;28;20049;-66
2021/04/11 08:44:05;;;;;;;5.80;2.70;;;;;;;15.61;52.32;99406.00;10347020;28;20108;-66
2021/04/11 08:49:20;;;;;;;5.22;2.15;;;;;;;15.55;53.17;99400.34;10375751;23;20125;-71
2021/04/11 08:54:25;;;;;;;4.30;2.30;;;;;;;15.34;53.34;99397.44;10365819;28;20436;-70
2021/04/11 08:59:54;;;;;;;3.47;3.03;;;;;;;15.62;52.42;99405.00;10342216;28;20065;-72
2021/04/11 09:05:20;;;;;;;2.78;2.33;;;;;;;15.88;51.33;99399.31;10337931;28;20123;-70
2021/04/11 09:11:02;;;;;;;2.92;1.98;;;;;;;16.33;50.67;99396.78;10341466;28;20504;-70
2021/04/11 09:16:09;;;;;;;3.25;2.38;;;;;;;17.08;48.56;99397.69;10340880;28;20042;-71
2021/04/11 09:21:29;;;;;;;4.60;2.80;;;;;;;17.77;46.89;99385.66;10342430;28;20059;-70
2021/04/11 09:27:07;;;;;;;4.15;2.63;;;;;;;18.43;45.33;99384.63;10340664;28;20129;-70
2021/04/11 09:32:17;;;;;;;3.60;2.10;;;;;;;18.02;46.46;99386.97;10336013;28;20069;-69
2021/04/11 09:37:35;;;;;;;3.05;2.22;;;;;;;18.00;46.03;99388.22;10332900;28;20544;-69
2021/04/11 09:42:54;;;;;;;3.22;2.40;;;;;;;18.18;45.66;99390.44;10340390;28;20061;-71
2021/04/11 09:48:15;;;;;;;2.53;2.00;;;;;;;18.51;45.90;99379.06;10334509;28;20058;-70
2021/04/11 09:54:09;;;;;;;5.22;3.20;;;;;;;17.93;46.02;99385.44;10334175;28;20127;-70
2021/04/11 09:59:32;;;;;;;3.05;1.77;;;;;;;17.38;47.66;99376.97;10244640;28;20041;-70
2021/04/11 10:04:58;;;;;;;3.20;2.90;;;;;;;17.16;48.25;99383.31;10333577;28;20176;-70
2021/04/11 10:10:10;;;;;;;3.33;3.03;;;;;;;17.02;48.97;99379.63;10332066;28;20049;-69
2021/04/11 10:15:32;;;;;;;4.78;1.90;;;;;;;16.74;49.61;99374.88;10330543;28;20140;-70
2021/04/11 10:20:42;;;;;;;2.17;1.92;;;;;;;16.55;49.95;99395.88;10328337;28;20065;-72
2021/04/11 10:25:56;;;;;;;4.68;1.90;;;;;;;16.63;50.18;99391.44;10332311;28;20052;-71
2021/04/11 10:31:10;;;;;;;6.05;2.63;;;;;;;16.47;50.56;99393.28;10339554;28;20325;-71
2021/04/11 10:36:17;;;;;;;3.40;2.22;;;;;;;16.26;51.05;99397.50;10325516;28;20482;-71
2021/04/11 10:41:33;;;;;;;2.95;1.88;;;;;;;16.42;50.70;99391.16;10324601;28;20619;-71
2021/04/11 10:46:53;;;;;;;5.28;2.17;;;;;;;16.54;49.96;99399.59;10321450;28;20608;-71
2021/04/11 10:52:19;;;;;;;3.42;2.33;;;;;;;16.72;49.66;99388.50;10332257;28;20635;-70
2021/04/11 10:57:30;;;;;;;4.38;2.97;;;;;;;16.33;51.18;99391.41;10363672;28;20054;-72
2021/04/11 11:02:51;;;;;;;3.55;2.97;;;;;;;16.23;51.52;99376.38;10334017;28;20116;-71
2021/04/11 11:08:10;;;;;;;4.07;2.50;;;;;;;17.91;47.96;99389.34;10341283;28;20050;-72
2021/04/11 11:13:20;;;;;;;3.63;2.50;;;;;;;20.51;42.38;99375.34;10358434;28;20049;-73
2021/04/11 11:18:47;;;;;;;5.90;2.58;;;;;;;20.75;39.97;99377.44;10355721;28;20053;-68
2021/04/11 11:24:14;;;;;;;3.00;2.08;;;;;;;19.25;43.21;99383.06;10330691;28;20129;-68
2021/04/11 11:29:51;;;;;;;3.67;1.40;;;;;;;17.77;47.52;99386.50;10327292;28;20061;-71
2021/04/11 11:35:04;;;;;;;2.55;1.52;;;;;;;16.90;49.35;99393.56;10336854;28;20145;-70
2021/04/11 11:40:09;;;;;;;3.80;1.77;;;;;;;16.51;51.04;99397.25;10345083;28;20046;-70
2021/04/11 11:45:34;;;;;;;2.40;2.05;;;;;;;16.15;52.88;99411.34;10377188;28;20458;-69
2021/04/11 11:50:42;;;;;;;4.70;4.30;;;;;;;15.71;54.58;99420.03;10337751;28;20521;-68
2021/04/11 11:56:01;;;;;;;3.72;2.92;;;;;;;15.34;55.87;99437.66;10335691;28;20050;-71
2021/04/11 12:01:06;;;;;;;4.65;2.78;;;;;;;14.86;57.33;99432.28;10343865;28;20562;-70
2021/04/11 12:06:15;;;;;;;3.05;2.13;;;;;;;14.69;58.26;99452.09;10340514;28;20317;-69
2021/04/11 12:11:31;;;;;;;4.13;2.10;;;;;;;14.48;59.16;99451.56;10341764;28;20091;-70
2021/04/11 12:16:41;;;;;;;2.60;1.98;;;;;;;14.29;59.89;99467.97;10341972;28;20045;-71
2021/04/11 12:22:02;;;;;;;3.70;1.92;;;;;;;14.31;59.87;99474.00;10323210;28;20488;-69
2021/04/11 12:27:06;;;;;;;3.45;2.47;;;;;;;14.38;59.83;99472.34;10341874;28;20093;-68
2021/04/11 12:32:10;;;;;;;3.55;2.38;;;;;;;13.88;61.08;99481.28;10325108;28;20056;-69
2021/04/11 12:37:42;;;;;;;3.00;2.40;;;;;;;13.75;61.88;99482.59;10342932;28;20046;-70
2021/04/11 12:43:04;;;;;;;5.07;2.33;;;;;;;13.62;62.41;99482.22;10341299;28;20046;-70
2021/04/11 12:48:08;;;;;;;2.47;2.05;;;;;;;13.54;62.03;99495.56;10345175;28;20562;-68
2021/04/11 12:53:14;;;;;;;;;;;;;;;12.98;63.57;99500.44;10346227;28;20343;-70
2021/04/11 12:58:18;;;;;;;2.90;1.80;;;;;;;13.03;63.87;99503.47;10352608;28;19964;-71
2021/04/11 13:03:33;;;;;;;4.10;2.03;;;;;;;12.82;64.19;99511.84;10343673;28;20058;-69
2021/04/11 13:08:57;;;;;;;1.50;1.40;;;;;;;12.96;63.29;99513.94;10354944;28;20132;-71
2021/04/11 13:14:20;;;;;;;1.83;0.98;;;;;;;13.08;62.42;99527.88;10372586;28;20112;-75
2021/04/11 13:19:27;;;;;;;1.40;1.25;;;;;;;12.99;63.64;99524.31;10376452;28;20038;-71
2021/04/11 13:24:37;;;;;;;2.25;0.63;;;;;;;13.04;64.83;99532.69;10375938;28;20061;-72
2021/04/11 13:30:06;;;;;;;0.60;0.43;;;;;;;13.25;64.00;99550.19;10344690;28;20034;-71
2021/04/11 13:35:20;;;;;;;0.98;0.50;;;;;;;13.32;64.68;99555.75;10353722;28;20050;-73
2021/04/11 13:40:25;;;;;;;0.93;0.60;;;;;;;13.07;64.30;99551.06;10371119;28;20045;-71
2021/04/11 13:45:34;;;;;;;0.50;0.38;;;;;;;13.20;65.00;99560.53;10378723;28;20064;-71
2021/04/11 13:50:44;;;;;;;0.70;0.47;;;;;;;13.03;65.58;99557.75;10383134;28;20046;-73
2021/04/11 13:56:18;;;;;;;0.82;0.40;;;;;;;12.91;67.29;99553.66;10382364;28;20046;-71
2021/04/11 14:01:45;;;;;;;0.60;0.50;;;;;;;12.84;68.43;99564.09;10349238;28;20092;-71
2021/04/11 14:07:00;;;;;;;1.20;0.70;;;;;;;12.55;69.59;99573.22;10376562;28;20111;-73
2021/04/11 14:12:07;;;;;;;1.65;1.15;;;;;;;12.75;69.26;99580.25;10386580;28;20052;-72
2021/04/11 14:17:29;;;;;;;1.65;0.50;;;;;;;12.78;67.91;99582.59;10338519;28;20057;-70
2021/04/11 14:22:39;;;;;;;1.13;0.32;;;;;;;12.57;66.97;99594.41;10340185;28;20140;-69
2021/04/11 14:27:43;;;;;;;0.73;0.35;;;;;;;12.57;65.39;99594.41;10328655;28;20049;-70
2021/04/11 14:33:01;;;;;;;1.27;0.37;;;;;;;12.50;64.72;99601.34;10336611;28;20074;-69
2021/04/11 14:38:08;;;;;;;1.25;0.30;;;;;;;12.28;65.72;99624.84;10335898;28;20428;-68
2021/04/11 14:43:20;;;;;;;0.60;0.22;;;;;;;12.18;66.51;99624.03;10339407;28;20054;-70
2021/04/11 14:48:25;;;;;;;1.27;0.60;;;;;;;12.27;65.39;99639.16;10337582;28;20593;-68
2021/04/11 14:53:36;;;;;;;0.80;0.43;;;;;;;12.20;65.03;99644.25;10336878;28;20165;-71
2021/04/11 14:58:55;;;;;;;1.52;0.63;;;;;;;11.84;65.05;99656.59;10340776;28;20088;-71
2021/04/11 15:04:25;;;;;;;0.80;0.50;;;;;;;11.87;64.85;99655.47;10339516;28;20127;-70
2021/04/11 15:10:03;;;;;;;2.38;0.70;;;;;;;11.66;65.26;99664.50;10332701;28;20112;-70
2021/04/11 15:15:14;;;;;;;1.83;0.98;;;;;;;11.73;64.60;99683.44;10337018;28;20061;-70
2021/04/11 15:20:23;;;;;;;5.57;0.57;;;;;;;11.43;65.24;99680.00;10333377;28;20408;-70
2021/04/11 15:25:41;;;;;;;1.40;0.90;;;;;;;11.37;65.74;99693.91;10335839;28;20539;-72
2021/04/11 15:30:46;;;;;;;1.48;0.60;;;;;;;11.37;65.03;99691.25;10338396;28;20556;-71
2021/04/11 15:35:53;;;;;;;;;;;;;;;11.11;66.18;99707.81;10336776;23;20120;-66
2021/04/11 15:41:19;;;;;;;2.38;0.80;;;;;;;10.91;66.25;99718.47;10335722;28;20599;-65
2021/04/11 15:46:48;;;;;;;1.38;0.90;;;;;;;10.93;65.14;99724.47;10319660;28;20480;-65
2021/04/11 15:52:03;;;;;;;1.73;0.63;;;;;;;10.90;63.91;99727.41;10320534;28;20060;-65
2021/04/11 15:57:21;;;;;;;2.78;0.85;;;;;;;9.94;69.00;99747.38;10328635;28;20132;-64
2021/04/11 16:02:26;;;;;;;1.02;0.90;;;;;;;10.26;67.73;99760.53;10322739;28;20077;-64
2021/04/11 16:07:42;;;;;;;1.33;0.93;;;;;;;10.30;68.38;99777.06;10325724;28;20073;-64
2021/04/11 16:13:06;;;;;;;1.25;0.82;;;;;;;10.05;67.04;99801.31;10324738;28;20563;-65
2021/04/11 16:18:25;;;;;;;1.25;0.60;;;;;;;9.62;69.06;99804.09;10326501;28;20419;-67
2021/04/11 16:23:58;;;;;;;1.83;0.85;;;;;;;9.82;68.50;99805.94;10306667;28;20062;-66
2021/04/11 16:29:19;;;;;;;1.27;0.63;;;;;;;9.83;67.71;99812.94;10324760;28;20060;-65
2021/04/11 16:34:29;;;;;;;1.92;0.77;;;;;;;9.48;69.09;99835.31;10329694;28;21631;-66
2021/04/11 16:40:00;;;;;;;0.73;0.20;;;;;;;9.32;69.07;99837.53;10321733;28;20061;-65
2021/04/11 16:45:42;;;;;;;1.15;0.50;;;;;;;9.35;68.57;99824.00;10316806;28;20129;-66
2021/04/11 16:50:50;;;;;;;0.90;0.68;;;;;;;9.28;69.42;99849.41;10223200;28;20127;-66
2021/04/11 16:56:05;;;;;;;1.50;0.77;;;;;;;9.13;69.78;99878.06;10317449;28;20118;-66
2021/04/11 17:01:15;;;;;;;1.23;0.80;;;;;;;9.09;70.63;99882.75;10328700;28;20054;-66
2021/04/11 17:06:22;;;;;;;2.03;1.30;;;;;;;9.34;69.92;99889.59;10320496;28;20112;-67
2021/04/11 17:11:36;;;;;;;0.90;0.70;;;;;;;8.51;71.02;99864.31;10325289;28;20459;-65
2021/04/11 17:16:40;;;;;;;0.85;0.65;;;;;;;8.89;69.16;99915.34;10323883;28;20113;-66
2021/04/11 17:21:45;;;;;;;1.17;0.50;;;;;;;8.95;68.10;99922.84;10327197;28;20070;-65
2021/04/11 17:27:15;;;;;;;0.50;0.30;;;;;;;8.84;68.27;99942.25;10323136;28;20046;-66
2021/04/11 17:32:23;;;;;;;1.75;0.50;;;;;;;8.74;68.32;99954.56;10293783;28;20099;-65
2021/04/11 17:37:45;;;;;;;0.93;0.57;;;;;;;8.85;67.15;99965.19;10324082;28;20045;-66
2021/04/11 17:43:30;;;;;;;0.40;0.30;;;;;;;8.04;67.75;99946.50;10320781;28;21157;-65
2021/04/11 17:48:51;;;;;;;0.77;0.30;;;;;;;8.35;66.74;99993.72;10318008;28;20065;-65
2021/04/11 17:54:30;;;;;;;0.40;0.30;;;;;;;7.97;67.51;100004.44;10319526;28;20535;-65
2021/04/11 17:59:49;;;;;;;1.08;0.50;;;;;;;7.68;68.08;100009.22;10303235;28;20509;-65
2021/04/11 18:05:35;;;;;;;1.45;0.30;;;;;;;7.92;68.37;100041.03;10322168;28;20124;-66
2021/04/11 18:10:55;;;;;;;0.98;0.60;;;;;;;7.91;67.73;100047.31;10310762;28;20161;-66
2021/04/11 18:16:08;;;;;;;2.28;0.82;;;;;;;8.13;74.61;100061.63;10314171;28;20137;-65
2021/04/11 18:21:31;;;;;;;1.70;0.60;;;;;;;7.53;67.76;100045.59;10317755;28;20042;-67
2021/04/11 18:26:36;;;;;;;0.80;0.57;;;;;;;8.08;69.02;100088.50;10323042;28;20088;-65
2021/04/11 18:32:03;;;;;;;1.55;0.77;;;;;;;8.12;67.27;100100.56;10313212;28;20046;-65
2021/04/11 18:37:21;;;;;;;1.40;0.50;;;;;;;7.93;67.74;100102.84;10322860;28;20610;-68
2021/04/11 18:42:56;;;;;;;1.27;0.93;;;;;;;8.01;67.27;100116.38;10315673;28;20100;-66
2021/04/11 18:48:00;;;;;;;0.77;0.77;;;;;;;7.89;66.55;100119.94;10316439;28;20057;-65
2021/04/11 18:53:31;;;;;;;1.40;0.95;;;;;;;7.84;66.96;100133.50;10320686;28;20160;-65
2021/04/11 18:58:34;;;;;;;0.90;0.80;;;;;;;7.81;67.15;100138.16;10320991;28;20082;-66
2021/04/11 19:03:53;;;;;;;1.60;0.77;;;;;;;7.71;66.37;100138.81;10316966;28;20070;-66
2021/04/11 19:09:27;;;;;;;1.60;0.90;;;;;;;7.71;66.77;100132.69;10298255;28;20117;-66
2021/04/11 19:14:44;;;;;;;1.10;1.00;;;;;;;7.64;68.32;100145.53;10314597;28;20069;-66
2021/04/11 19:19:56;;;;;;;0.98;0.95;;;;;;;7.40;68.80;100151.56;10316339;28;20176;-65
2021/04/11 19:25:30;;;;;;;1.33;1.23;;;;;;;7.41;69.24;100163.00;10316458;28;20194;-66
2021/04/11 19:30:52;;;;;;;1.27;1.15;;;;;;;7.57;68.18;100184.81;10312384;28;20108;-66
2021/04/11 19:36:19;;;;;;;1.27;1.17;;;;;;;7.56;67.64;100163.75;10316220;28;20069;-67
2021/04/11 19:41:45;;;;;;;1.40;1.30;;;;;;;7.60;69.03;100194.38;10302750;28;20046;-67
2021/04/11 19:47:03;;;;;;;1.63;1.30;;;;;;;7.48;67.54;100163.44;10310704;28;20148;-65
2021/04/11 19:52:10;;;;;;;1.98;1.77;;;;;;;7.67;67.98;100210.69;10319079;28;20090;-65
2021/04/11 19:57:37;;;;;;;1.45;1.20;;;;;;;7.37;68.91;100214.47;10313431;28;20111;-66
2021/04/11 20:03:06;;;;;;;1.20;1.10;;;;;;;7.58;68.61;100222.75;10315801;28;20514;-65
2021/04/11 20:08:25;;;;;;;1.33;1.23;;;;;;;7.58;68.27;100218.31;10306368;28;20049;-67
2021/04/11 20:13:49;;;;;;;1.40;1.30;;;;;;;7.62;67.95;100224.25;10299556;28;20535;-67
2021/04/11 20:19:02;;;;;;;1.55;1.45;;;;;;;7.58;68.38;100233.34;10302919;28;20050;-67
2021/04/11 20:24:21;;;;;;;1.60;1.50;;;;;;;7.55;68.55;100249.44;10289846;28;20058;-66
2021/04/11 20:29:37;;;;;;;1.63;1.48;;;;;;;7.39;68.17;100234.59;10308403;28;20101;-65
2021/04/11 20:34:58;;;;;;;2.17;1.70;;;;;;;7.37;67.98;100249.75;10301305;28;20051;-67
2021/04/11 20:40:17;;;;;;;1.55;1.45;;;;;;;7.45;68.61;100257.19;10302659;28;20437;-65
2021/04/11 20:45:29;;;;;;;2.80;1.52;;;;;;;7.44;68.30;100255.47;10306606;28;20050;-66
2021/04/11 20:51:05;;;;;;;2.08;1.88;;;;;;;7.57;67.67;100266.94;10289919;28;20689;-66
2021/04/11 20:56:43;;;;;;;1.67;1.58;;;;;;;7.60;67.37;100273.84;10289046;28;20074;-65
2021/04/11 21:02:26;;;;;;;1.65;1.55;;;;;;;7.61;67.65;100286.13;10307826;28;20500;-67
2021/04/11 21:07:46;;;;;;;1.55;1.20;;;;;;;7.44;67.83;100290.75;10313291;28;20621;-66
2021/04/11 21:13:05;;;;;;;1.38;1.27;;;;;;;7.54;68.08;100287.50;10308932;28;20106;-66
2021/04/11 21:18:49;;;;;;;2.03;1.65;;;;;;;7.60;67.83;100303.81;10295720;28;20074;-67
2021/04/11 21:24:11;;;;;;;3.13;2.05;;;;;;;7.60;67.38;100319.72;10296447;28;20113;-66
2021/04/11 21:29:37;;;;;;;2.38;2.17;;;;;;;7.62;66.79;100327.56;10307475;28;20070;-67
2021/04/11 21:34:40;;;;;;;1.88;1.77;;;;;;;7.36;67.51;100335.44;10321959;23;20046;-69
2021/04/11 21:40:06;;;;;;;2.30;2.15;;;;;;;7.55;68.09;100344.81;10390195;28;20045;-70
2021/04/11 21:45:29;;;;;;;3.03;2.15;;;;;;;7.41;67.78;100351.88;10382391;28;20049;-70
2021/04/11 21:51:02;;;;;;;2.30;2.10;;;;;;;7.55;67.01;100364.22;10389148;28;20083;-69
2021/04/11 21:56:48;;;;;;;2.95;2.70;;;;;;;7.56;66.93;100362.41;10384884;28;20396;-69
2021/04/11 22:02:25;;;;;;;2.45;2.25;;;;;;;7.59;66.86;100378.09;10375633;28;20064;-69
2021/04/11 22:07:36;;;;;;;2.90;2.70;;;;;;;7.60;67.21;100378.00;10389772;28;20045;-70
2021/04/11 22:12:48;;;;;;;3.40;3.00;;;;;;;7.57;66.90;100383.50;10385073;28;20037;-70
2021/04/11 22:18:13;;;;;;;2.70;2.50;;;;;;;7.53;66.87;100387.28;10388853;28;20102;-71
2021/04/11 22:23:27;;;;;;;2.90;2.70;;;;;;;7.46;67.94;100411.66;10389267;28;20049;-69
2021/04/11 22:28:40;;;;;;;2.70;2.50;;;;;;;7.47;66.63;100416.00;10404898;28;20072;-71
2021/04/11 22:33:48;;;;;;;3.17;2.60;;;;;;;7.52;66.66;100419.19;10424360;28;20099;-68
2021/04/11 22:39:00;;;;;;;3.58;2.90;;;;;;;7.52;66.35;100408.59;10394968;28;20045;-68
2021/04/11 22:44:18;;;;;;;4.57;2.75;;;;;;;7.52;66.59;100432.44;10407247;28;20050;-70
2021/04/11 22:49:28;;;;;;;2.58;2.35;;;;;;;7.47;66.38;100434.53;10411304;28;20029;-71
2021/04/11 22:55:02;;;;;;;2.83;2.63;;;;;;;7.49;66.41;100441.44;10409176;28;20477;-69
2021/04/11 23:00:24;;;;;;;2.58;2.38;;;;;;;7.48;66.23;100460.09;10364125;28;20459;-69
2021/04/11 23:05:38;;;;;;;2.70;2.47;;;;;;;7.45;66.21;100463.78;10368062;28;20073;-69
2021/04/11 23:10:54;;;;;;;3.17;2.60;;;;;;;7.43;65.62;100463.88;10369770;28;20111;-69
2021/04/11 23:16:10;;;;;;;3.95;2.40;;;;;;;7.44;66.39;100476.16;10383302;28;20158;-69
2021/04/11 23:21:28;;;;;;;7.25;2.95;;;;;;;7.40;66.23;100490.56;10403175;28;20060;-69
2021/04/11 23:26:44;;;;;;;3.05;2.85;;;;;;;7.31;66.41;100495.56;10391405;28;20049;-68
2021/04/11 23:31:51;;;;;;;;;;;;;;;7.37;65.66;100511.94;10373455;28;20150;-69
2021/04/11 23:37:01;;;;;;;;;;;;;;;7.20;66.05;100526.22;10390718;28;19998;-69
2021/04/11 23:42:17;;;;;;;;;;;;;;;7.29;64.45;100518.66;10384468;28;20338;-69
2021/04/11 23:47:18;;;;;;;;;;;;;;;6.94;66.14;100519.91;10378106;28;19928;-68
2021/04/11 23:52:25;;;;;;;;;;;;;;;6.78;66.37;100525.25;10391590;28;19964;-69
2021/04/11 23:57:26;;;;;;;;;;;;;;;7.01;65.95;100525.66;10372203;28;19944;-69
